Impacts TAF Board
For situational awareness. Not to be used for flight planning purposes.
IDs:

KVCT - Victoria Rgnl, TX, US

Issued at 0520 UTC 19 Aug 2019
Updated at 0627 UTC 19 Aug 2019
Potential Impact None Slight Moderate High
Time<<19/19Z 19/20Z 19/21Z 19/22Z 19/23Z 20/00Z 20/01Z 20/02Z 20/03Z 20/04Z 20/05Z 20/06Z 20/07Z>>
Type PRVL PRVL PRVL PRVL PRVL PRVL PRVL PRVL PRVL PRVL PRVL
VIS >6 >6 >6 >6 >6 >6 >6 >6 >6 >6 >6
CIG -- -- -- -- -- -- -- -- -- -- --
Cover SCT SCT SCT SCT SCT SCT SCT SCT SCT SCT SCT
FltCat VFR VFR VFR VFR VFR VFR VFR VFR VFR VFR VFR
WX VCTS VCTS VCTS VCTS VCTS VCTS VCTS VCTS VCTS VCTS VCTS
WDir 150 150 150 150 150 150 150 150 150 150 150
WSpd 10 10 10 10 10 10 10 10 10 10 10
WGst 18 18 18 18 18 18 18 18 18 18 18
Raw TAF
KVCT 190520Z 1906/2006 14008KT P6SM SCT020
  TEMPO 1908/1912 BKN020
  FM191400 16008KT P6SM VCSH BKN035
  FM191800 15010G18KT P6SM VCTS SCT040CB


METAR Board
Radar Display
Forecast Discussion
For situational awareness. Not to be used for flight planning purposes.